Current Weather

Sydney Intl

Sydney Intl, Australia (YSSY)

Report from: Wednesday, September 28, 2022 8:00 PM AEST
Current time: Wednesday, September 28, 2022 8:34 PM AEST

Nearby weather
Weather history
Weather forecast

Present weatherVCSH, SW, LIGHTNINGS, TO
Temperature17.0°C (62.6°F)
Dew point14.0°C (57.2°F)
Winds 15 kts (7.7 m/s, 17.3 mph) South-Southwest (210°)
Visibility6.2 mi. (10 km)
Clouds Scattered clouds 1,400 ft. (427 m)
Scattered clouds 2,500 ft. (762 m)
Altimeter29.91 in.Hg (1013 mB)
Relative humidity83 %
Density altitude466 ft. (142 m)
Remarks Special weather observation
Flight conditions Visual Meteorological Conditions
Raw dataSPAU31 KWBC 281021 SPECI YSSY 281000Z 21015KT 9999 VCSH SCT014 SCT025 17/14 Q1013 RF00/0/000/2 DL-S/DL-SW LIGHTNINGS TO S/SW
An error has occurred. This application may no longer respond until reloaded. Reload 🗙